createdAt,value
2022-10-17T00:00:33.845Z,14.00
2022-10-17T00:03:00.424Z,14.00
2022-10-17T00:05:27.021Z,14.00
2022-10-17T00:07:54.501Z,14.00
2022-10-17T00:10:21.457Z,14.10
2022-10-17T00:12:48.303Z,14.00
2022-10-17T00:15:16.944Z,14.10
2022-10-17T00:17:43.643Z,14.00
2022-10-17T00:20:10.728Z,14.00
2022-10-17T00:22:37.305Z,14.00
2022-10-17T00:25:04.291Z,14.10
2022-10-17T00:27:30.959Z,14.20
2022-10-17T00:29:57.573Z,14.20
2022-10-17T00:32:24.164Z,14.20
2022-10-17T00:34:50.700Z,14.10
2022-10-17T00:37:17.265Z,14.10
2022-10-17T00:39:43.807Z,14.10
2022-10-17T00:42:13.236Z,14.10
2022-10-17T00:44:39.714Z,14.10
2022-10-17T00:47:11.550Z,14.00
2022-10-17T00:49:39.267Z,14.00
2022-10-17T00:52:19.374Z,13.90
2022-10-17T00:54:51.682Z,14.00
2022-10-17T00:57:18.391Z,14.00
2022-10-17T00:59:50.244Z,13.90
2022-10-17T01:02:19.801Z,13.90
2022-10-17T01:04:50.710Z,14.00
2022-10-17T01:07:17.471Z,14.10
2022-10-17T01:09:46.938Z,14.10
2022-10-17T01:12:43.173Z,14.30
2022-10-17T01:15:23.689Z,14.30
2022-10-17T01:18:19.098Z,14.40
2022-10-17T01:21:03.273Z,14.50
2022-10-17T01:23:48.075Z,14.40
2022-10-17T01:26:30.696Z,14.20
2022-10-17T01:29:31.750Z,14.10
2022-10-17T01:32:24.763Z,14.00
2022-10-17T01:35:19.328Z,13.80
2022-10-17T01:40:37.007Z,13.60
2022-10-17T01:43:18.095Z,13.60
2022-10-17T01:46:00.299Z,13.70
2022-10-17T01:48:34.439Z,13.80
2022-10-17T01:51:24.368Z,13.70
2022-10-17T01:54:00.042Z,13.80
2022-10-17T01:56:30.070Z,13.80
2022-10-17T01:59:02.794Z,13.60
2022-10-17T02:01:31.197Z,13.70
2022-10-17T02:03:59.298Z,13.60
2022-10-17T02:06:25.876Z,13.60
2022-10-17T02:08:52.535Z,13.70
2022-10-17T02:11:24.827Z,13.60
2022-10-17T02:14:25.651Z,13.70
2022-10-17T02:17:07.082Z,13.70
2022-10-17T02:19:52.580Z,13.60
2022-10-17T02:22:41.830Z,13.60
2022-10-17T02:25:21.448Z,13.60
2022-10-17T02:27:53.922Z,13.50
2022-10-17T02:30:37.013Z,13.60
2022-10-17T02:33:20.987Z,13.60
2022-10-17T02:35:52.075Z,13.60
2022-10-17T02:38:20.314Z,13.60
2022-10-17T02:40:50.123Z,13.70
2022-10-17T02:43:16.816Z,13.80
2022-10-17T02:45:43.766Z,13.90
2022-10-17T02:48:34.373Z,14.00
2022-10-17T02:51:29.411Z,14.00
2022-10-17T02:54:22.269Z,14.10
2022-10-17T02:57:30.213Z,14.10
2022-10-17T03:00:00.797Z,14.10
2022-10-17T03:02:28.247Z,14.10
2022-10-17T03:04:56.369Z,14.10
2022-10-17T03:07:22.994Z,14.10
2022-10-17T03:09:49.601Z,14.10
2022-10-17T03:12:16.157Z,14.10
2022-10-17T03:14:42.747Z,14.10
2022-10-17T03:17:09.445Z,14.10
2022-10-17T03:19:36.029Z,14.10
2022-10-17T03:22:02.683Z,14.10
2022-10-17T03:24:29.238Z,14.00
2022-10-17T03:26:55.874Z,14.00
2022-10-17T03:29:22.486Z,13.90
2022-10-17T03:31:49.108Z,14.00
2022-10-17T03:34:18.609Z,14.00
2022-10-17T03:36:45.921Z,14.00
2022-10-17T03:39:12.569Z,14.00
2022-10-17T03:41:39.138Z,13.40
2022-10-17T03:44:05.761Z,14.10
2022-10-17T03:46:32.460Z,14.10
2022-10-17T03:48:59.144Z,14.10
2022-10-17T03:51:25.878Z,14.10
2022-10-17T03:53:52.532Z,14.00
2022-10-17T03:56:22.305Z,14.00
2022-10-17T03:58:49.419Z,14.00
2022-10-17T04:01:17.801Z,14.10
2022-10-17T04:03:48.228Z,14.00
2022-10-17T04:06:14.838Z,14.00
2022-10-17T04:08:42.730Z,14.00
2022-10-17T04:11:13.563Z,14.00
2022-10-17T04:13:40.763Z,13.90
2022-10-17T04:16:10.668Z,14.00
2022-10-17T04:18:37.301Z,14.00
2022-10-17T04:21:05.385Z,14.00
2022-10-17T04:23:32.695Z,13.90
2022-10-17T04:26:00.689Z,13.90
2022-10-17T04:28:28.631Z,13.80
2022-10-17T04:31:07.050Z,13.80
2022-10-17T04:33:34.597Z,13.70
2022-10-17T04:36:10.849Z,13.80
2022-10-17T04:38:37.518Z,13.80
2022-10-17T04:41:06.944Z,13.80
2022-10-17T04:43:36.269Z,13.90
2022-10-17T04:46:05.998Z,13.90
2022-10-17T04:48:32.931Z,14.00
2022-10-17T04:51:01.760Z,13.80
2022-10-17T04:53:31.044Z,13.90
2022-10-17T04:55:57.612Z,13.80
2022-10-17T04:58:24.747Z,13.80
2022-10-17T05:00:51.375Z,13.90
2022-10-17T05:03:17.938Z,13.90
2022-10-17T05:05:44.604Z,13.50
2022-10-17T05:08:12.147Z,13.90
2022-10-17T05:10:46.286Z,13.90
2022-10-17T05:13:13.637Z,13.90
2022-10-17T05:15:40.334Z,13.80
2022-10-17T05:18:07.140Z,13.80
2022-10-17T05:20:34.190Z,13.80
2022-10-17T05:23:01.002Z,13.70
2022-10-17T05:25:27.742Z,13.60
2022-10-17T05:27:54.457Z,13.60
2022-10-17T05:30:21.056Z,13.70
2022-10-17T05:32:47.646Z,13.70
2022-10-17T05:35:14.313Z,13.70
2022-10-17T05:37:40.865Z,13.70
2022-10-17T05:40:08.184Z,13.70
2022-10-17T05:42:34.792Z,13.70
2022-10-17T05:45:01.350Z,13.70
2022-10-17T05:47:28.427Z,13.70
2022-10-17T05:49:55.270Z,13.80
2022-10-17T05:52:21.886Z,13.70
2022-10-17T05:54:48.414Z,13.70
2022-10-17T05:57:15.075Z,13.80
2022-10-17T05:59:41.626Z,13.70
2022-10-17T06:02:11.296Z,13.80
2022-10-17T06:04:37.993Z,13.60
2022-10-17T06:07:05.080Z,13.90
2022-10-17T06:09:31.681Z,13.90
2022-10-17T06:11:58.272Z,14.00
2022-10-17T06:14:24.845Z,14.00
2022-10-17T06:16:51.403Z,14.00
2022-10-17T06:19:17.951Z,14.10
2022-10-17T06:21:44.490Z,14.10
2022-10-17T06:24:11.044Z,14.20
2022-10-17T06:26:37.609Z,14.10
2022-10-17T06:29:04.237Z,14.20
2022-10-17T06:31:30.873Z,14.30
2022-10-17T06:33:57.431Z,14.40
2022-10-17T06:36:24.019Z,14.50
2022-10-17T06:38:50.769Z,14.50
2022-10-17T06:41:19.298Z,14.50
2022-10-17T06:43:47.127Z,14.40
2022-10-17T06:46:15.397Z,14.50
2022-10-17T06:48:42.624Z,14.20
2022-10-17T06:51:11.263Z,14.50
2022-10-17T06:53:39.910Z,14.60
2022-10-17T06:56:08.206Z,14.60
2022-10-17T06:58:39.120Z,14.60
2022-10-17T07:03:41.217Z,14.70
2022-10-17T07:06:11.206Z,14.80
2022-10-17T07:08:38.064Z,14.80
2022-10-17T07:11:12.735Z,14.90
2022-10-17T07:13:39.531Z,15.00
2022-10-17T07:16:06.714Z,15.00
2022-10-17T07:18:33.599Z,15.00
2022-10-17T07:21:00.571Z,15.20
2022-10-17T07:23:27.219Z,15.30
2022-10-17T07:25:59.160Z,15.30
2022-10-17T07:28:25.803Z,15.40
2022-10-17T07:30:54.441Z,15.70
2022-10-17T07:33:21.604Z,15.60
2022-10-17T07:35:48.199Z,15.50
2022-10-17T07:38:14.736Z,15.60
2022-10-17T07:40:41.585Z,15.70
2022-10-17T07:43:08.227Z,15.70
2022-10-17T07:45:34.755Z,15.80
2022-10-17T07:48:01.258Z,15.80
2022-10-17T07:50:27.849Z,15.90
2022-10-17T07:52:54.484Z,16.00
2022-10-17T07:55:20.998Z,15.90
2022-10-17T07:57:47.774Z,16.20
2022-10-17T08:00:14.565Z,16.30
2022-10-17T08:02:41.250Z,16.30
2022-10-17T08:05:08.070Z,16.10
2022-10-17T08:07:34.745Z,16.50
2022-10-17T08:10:01.468Z,16.60
2022-10-17T08:12:32.386Z,16.70
2022-10-17T08:14:59.224Z,16.70
2022-10-17T08:17:25.921Z,16.90
2022-10-17T08:19:52.604Z,16.90
2022-10-17T08:22:19.176Z,17.00
2022-10-17T08:24:46.238Z,17.10
2022-10-17T08:27:13.667Z,17.20
2022-10-17T08:29:41.095Z,17.20
2022-10-17T08:32:10.011Z,17.40
2022-10-17T08:34:36.824Z,17.40
2022-10-17T08:37:03.510Z,17.50
2022-10-17T08:39:30.156Z,17.60
2022-10-17T08:42:22.204Z,17.50
2022-10-17T08:45:15.709Z,17.60
2022-10-17T08:47:51.471Z,17.70
2022-10-17T08:50:48.071Z,17.80
2022-10-17T08:53:27.535Z,17.90
2022-10-17T08:55:55.115Z,18.00
2022-10-17T08:58:39.862Z,18.10
2022-10-17T09:01:25.581Z,18.10
2022-10-17T09:04:10.840Z,18.20
2022-10-17T09:07:04.395Z,18.40
2022-10-17T09:09:59.375Z,18.50
2022-10-17T09:12:54.542Z,18.60
2022-10-17T09:15:53.794Z,18.80
2022-10-17T09:18:27.821Z,18.90
2022-10-17T09:21:00.361Z,18.90
2022-10-17T09:23:31.761Z,18.90
2022-10-17T09:26:01.277Z,19.10
2022-10-17T09:28:37.863Z,19.20
2022-10-17T09:31:16.395Z,19.20
2022-10-17T09:33:54.927Z,19.40
2022-10-17T09:36:29.587Z,19.50
2022-10-17T09:39:12.787Z,19.60
2022-10-17T09:41:47.305Z,19.80
2022-10-17T09:44:19.944Z,19.90
2022-10-17T09:47:30.677Z,20.00
2022-10-17T09:49:57.945Z,20.10
2022-10-17T09:52:47.437Z,20.10
2022-10-17T09:55:20.165Z,20.10
2022-10-17T09:57:58.579Z,20.30
2022-10-17T10:00:29.264Z,20.40
2022-10-17T10:03:18.832Z,20.30
2022-10-17T10:06:05.372Z,20.60
2022-10-17T10:08:37.798Z,20.70
2022-10-17T10:11:11.835Z,20.70
2022-10-17T10:13:40.387Z,21.00
2022-10-17T10:16:30.966Z,21.00
2022-10-17T10:18:58.201Z,21.10
2022-10-17T10:21:26.904Z,21.20
2022-10-17T10:23:59.504Z,21.30
2022-10-17T10:26:29.705Z,21.30
2022-10-17T10:29:22.442Z,21.40
2022-10-17T10:31:50.256Z,21.50
2022-10-17T10:34:22.291Z,21.50
2022-10-17T10:37:05.293Z,21.50
2022-10-17T10:39:42.643Z,21.60
2022-10-17T10:42:26.459Z,21.60
2022-10-17T10:44:55.149Z,21.80
2022-10-17T10:47:26.275Z,21.80
2022-10-17T10:50:25.270Z,22.00
2022-10-17T10:53:11.755Z,22.10
2022-10-17T10:55:56.708Z,22.10
2022-10-17T10:58:40.223Z,22.10
2022-10-17T11:01:17.894Z,22.30
2022-10-17T11:04:13.621Z,22.40
2022-10-17T11:06:44.088Z,22.50
2022-10-17T11:09:24.825Z,22.60
2022-10-17T11:12:20.711Z,22.60
2022-10-17T11:14:55.423Z,22.60
2022-10-17T11:17:30.504Z,22.80
2022-10-17T11:20:09.343Z,22.80
2022-10-17T11:22:47.547Z,22.90
2022-10-17T11:25:33.900Z,22.90
2022-10-17T11:28:04.942Z,22.90
2022-10-17T11:31:03.357Z,23.10
2022-10-17T11:33:48.710Z,23.10
2022-10-17T11:36:19.811Z,23.20
2022-10-17T11:38:58.989Z,23.30
2022-10-17T11:41:41.078Z,23.30
2022-10-17T11:44:22.306Z,23.40
2022-10-17T11:47:00.112Z,23.40
2022-10-17T11:49:38.483Z,23.50
2022-10-17T11:52:44.335Z,23.50
2022-10-17T11:55:22.373Z,23.50
2022-10-17T11:58:20.866Z,23.50
2022-10-17T12:01:08.100Z,23.60
2022-10-17T12:04:07.067Z,23.70
2022-10-17T12:06:55.689Z,23.80
2022-10-17T12:10:06.775Z,23.80
2022-10-17T12:12:35.034Z,23.90
2022-10-17T12:15:13.659Z,24.00
2022-10-17T12:17:44.123Z,24.10
2022-10-17T12:20:25.624Z,24.10
2022-10-17T12:22:59.496Z,24.00
2022-10-17T12:25:33.163Z,24.00
2022-10-17T12:28:13.757Z,24.10
2022-10-17T12:30:52.393Z,24.10
2022-10-17T12:33:22.574Z,24.30
2022-10-17T12:35:51.183Z,24.30
2022-10-17T12:38:17.722Z,24.30
2022-10-17T12:40:48.713Z,24.30
2022-10-17T12:43:15.653Z,24.30
2022-10-17T12:45:53.511Z,24.30
2022-10-17T12:48:38.434Z,24.30
2022-10-17T12:54:16.530Z,24.40
2022-10-17T12:56:48.636Z,24.30
2022-10-17T12:59:22.242Z,24.30
2022-10-17T13:01:55.953Z,24.40
2022-10-17T13:04:23.240Z,24.30
2022-10-17T13:06:54.266Z,24.30
2022-10-17T13:09:31.918Z,24.20
2022-10-17T13:12:02.189Z,24.20
2022-10-17T13:14:29.738Z,24.20
2022-10-17T13:16:59.221Z,24.20
2022-10-17T13:19:29.561Z,24.20
2022-10-17T13:21:59.878Z,24.20
2022-10-17T13:24:32.007Z,24.10
2022-10-17T13:26:59.809Z,24.10
2022-10-17T13:29:29.579Z,24.10
2022-10-17T13:32:04.088Z,24.10
2022-10-17T13:34:32.459Z,24.10
2022-10-17T13:37:05.027Z,24.10
2022-10-17T13:39:56.025Z,24.20
2022-10-17T13:42:29.129Z,24.30
2022-10-17T13:44:57.330Z,24.30
2022-10-17T13:47:30.550Z,24.30
2022-10-17T13:49:58.934Z,24.30
2022-10-17T13:52:28.858Z,24.40
2022-10-17T13:55:06.357Z,24.20
2022-10-17T13:57:33.402Z,24.20
2022-10-17T14:00:28.866Z,24.20
2022-10-17T14:02:55.478Z,24.10
2022-10-17T14:05:23.711Z,24.10
2022-10-17T14:08:11.811Z,24.10
2022-10-17T14:10:40.823Z,24.10
2022-10-17T14:13:18.236Z,24.00
2022-10-17T14:15:46.359Z,24.00
2022-10-17T14:18:34.853Z,23.90
2022-10-17T14:23:51.152Z,23.90
2022-10-17T14:26:21.350Z,23.90
2022-10-17T14:29:01.880Z,23.90
2022-10-17T14:31:34.415Z,23.90
2022-10-17T14:34:02.963Z,24.00
2022-10-17T14:36:39.891Z,24.10
2022-10-17T14:39:14.135Z,24.20
2022-10-17T14:41:45.464Z,24.00
2022-10-17T14:44:33.787Z,24.00
2022-10-17T14:47:30.201Z,23.90
2022-10-17T14:50:02.035Z,23.80
2022-10-17T14:52:30.834Z,23.60
2022-10-17T14:54:59.194Z,23.50
2022-10-17T14:57:44.034Z,23.50
2022-10-17T15:00:15.649Z,23.50
2022-10-17T15:02:42.458Z,23.40
2022-10-17T15:05:13.077Z,23.20
2022-10-17T15:07:40.572Z,23.20
2022-10-17T15:10:36.275Z,23.20
2022-10-17T15:15:52.405Z,23.00
2022-10-17T15:18:19.582Z,22.80
2022-10-17T15:20:46.270Z,22.90
2022-10-17T15:23:13.144Z,22.80
2022-10-17T15:25:40.020Z,22.80
2022-10-17T15:28:06.700Z,23.50
2022-10-17T15:30:36.366Z,22.60
2022-10-17T15:33:03.087Z,22.60
2022-10-17T15:35:30.519Z,22.70
2022-10-17T15:37:57.127Z,22.70
2022-10-17T15:40:28.434Z,22.60
2022-10-17T15:42:56.329Z,22.60
2022-10-17T15:45:23.901Z,22.60
2022-10-17T15:48:04.037Z,22.50
2022-10-17T15:50:30.736Z,22.50
2022-10-17T15:52:57.366Z,22.50
2022-10-17T15:55:24.515Z,22.30
2022-10-17T15:57:51.320Z,22.30
2022-10-17T16:00:20.605Z,22.30
2022-10-17T16:02:49.131Z,22.20
2022-10-17T16:05:23.537Z,22.20
2022-10-17T16:07:50.286Z,22.10
2022-10-17T16:10:17.358Z,22.00
2022-10-17T16:12:43.924Z,22.00
2022-10-17T16:15:33.929Z,21.90
2022-10-17T16:18:02.918Z,21.80
2022-10-17T16:20:32.506Z,21.80
2022-10-17T16:23:02.260Z,21.80
2022-10-17T16:25:30.619Z,21.70
2022-10-17T16:27:59.148Z,21.70
2022-10-17T16:30:28.427Z,21.70
2022-10-17T16:33:01.086Z,21.70
2022-10-17T16:35:33.310Z,21.70
2022-10-17T16:38:04.287Z,21.60
2022-10-17T16:40:31.795Z,21.70
2022-10-17T16:42:58.421Z,21.60
2022-10-17T16:45:25.006Z,21.60
2022-10-17T16:47:52.983Z,21.50
2022-10-17T16:50:19.900Z,21.40
2022-10-17T16:52:46.676Z,21.30
2022-10-17T16:55:13.347Z,21.30
2022-10-17T16:57:40.140Z,21.10
2022-10-17T17:00:07.728Z,21.30
2022-10-17T17:02:34.621Z,20.90
2022-10-17T17:05:01.640Z,20.80
2022-10-17T17:07:29.736Z,20.70
2022-10-17T17:09:56.888Z,20.50
2022-10-17T17:12:23.532Z,20.60
2022-10-17T17:14:50.249Z,20.70
2022-10-17T17:17:30.149Z,20.50
2022-10-17T17:19:57.337Z,20.40
2022-10-17T17:22:23.867Z,20.30
2022-10-17T17:24:50.682Z,20.20
2022-10-17T17:27:17.366Z,20.20
2022-10-17T17:29:43.978Z,20.30
2022-10-17T17:32:10.947Z,20.30
2022-10-17T17:34:37.787Z,20.30
2022-10-17T17:37:04.403Z,20.20
2022-10-17T17:39:31.031Z,20.10
2022-10-17T17:41:57.650Z,20.20
2022-10-17T17:44:24.268Z,20.20
2022-10-17T17:46:50.912Z,20.20
2022-10-17T17:49:17.451Z,20.20
2022-10-17T17:51:46.522Z,20.20
2022-10-17T17:54:13.566Z,20.20
2022-10-17T17:56:40.305Z,20.10
2022-10-17T17:59:07.033Z,19.90
2022-10-17T18:01:40.929Z,19.90
2022-10-17T18:04:08.965Z,19.90
2022-10-17T18:06:37.347Z,19.90
2022-10-17T18:09:04.862Z,19.80
2022-10-17T18:11:31.982Z,19.70
2022-10-17T18:14:01.529Z,19.50
2022-10-17T18:16:29.818Z,19.50
2022-10-17T18:19:04.171Z,19.50
2022-10-17T18:21:33.583Z,19.40
2022-10-17T18:24:00.319Z,19.30
2022-10-17T18:26:27.456Z,19.30
2022-10-17T18:28:54.351Z,19.40
2022-10-17T18:31:28.429Z,19.30
2022-10-17T18:34:00.662Z,19.20
2022-10-17T18:36:28.956Z,19.20
2022-10-17T18:38:56.247Z,19.00
2022-10-17T18:41:25.141Z,19.00
2022-10-17T18:43:53.303Z,19.20
2022-10-17T18:46:32.577Z,19.20
2022-10-17T18:48:59.170Z,19.20
2022-10-17T18:51:26.357Z,19.20
2022-10-17T18:53:55.094Z,19.00
2022-10-17T18:56:22.819Z,18.90
2022-10-17T18:58:49.473Z,18.90
2022-10-17T19:01:21.187Z,18.80
2022-10-17T19:03:49.810Z,18.80
2022-10-17T19:06:20.135Z,18.70
2022-10-17T19:08:47.486Z,18.50
2022-10-17T19:11:20.411Z,18.30
2022-10-17T19:13:47.720Z,18.40
2022-10-17T19:16:21.333Z,18.30
2022-10-17T19:18:56.144Z,18.20
2022-10-17T19:21:23.332Z,18.30
2022-10-17T19:23:52.303Z,18.50
2022-10-17T19:26:20.089Z,18.50
2022-10-17T19:28:47.859Z,18.50
2022-10-17T19:31:16.986Z,18.60
2022-10-17T19:33:44.728Z,18.70
2022-10-17T19:36:12.684Z,18.70
2022-10-17T19:38:39.499Z,18.80
2022-10-17T19:41:07.999Z,18.60
2022-10-17T19:43:40.156Z,18.50
2022-10-17T19:46:11.133Z,18.20
2022-10-17T19:48:38.397Z,18.20
2022-10-17T19:51:06.611Z,18.00
2022-10-17T19:53:33.795Z,17.90
2022-10-17T19:56:00.918Z,17.80
2022-10-17T19:58:28.280Z,17.70
2022-10-17T20:01:01.091Z,17.70
2022-10-17T20:03:28.520Z,17.90
2022-10-17T20:05:55.578Z,17.90
2022-10-17T20:08:22.339Z,17.90
2022-10-17T20:10:49.025Z,17.80
2022-10-17T20:13:15.753Z,17.80
2022-10-17T20:15:42.336Z,17.60
2022-10-17T20:18:09.052Z,17.60
2022-10-17T20:20:36.821Z,18.00
2022-10-17T20:23:04.360Z,17.90
2022-10-17T20:25:30.992Z,18.10
2022-10-17T20:27:58.299Z,18.10
2022-10-17T20:30:24.835Z,18.10
2022-10-17T20:32:55.036Z,18.10
2022-10-17T20:35:22.168Z,18.10
2022-10-17T20:37:48.728Z,18.10
2022-10-17T20:40:35.211Z,18.10
2022-10-17T20:43:02.729Z,17.70
2022-10-17T20:45:43.801Z,17.90
2022-10-17T20:48:16.097Z,17.70
2022-10-17T20:50:43.783Z,17.60
2022-10-17T20:53:35.617Z,17.60
2022-10-17T20:56:11.498Z,17.50
2022-10-17T20:58:38.029Z,17.40
2022-10-17T21:01:09.226Z,17.20
2022-10-17T21:03:42.388Z,17.10
2022-10-17T21:06:12.394Z,17.00
2022-10-17T21:08:40.735Z,17.10
2022-10-17T21:11:16.947Z,17.20
2022-10-17T21:13:44.121Z,17.20
2022-10-17T21:16:13.003Z,17.30
2022-10-17T21:18:40.296Z,17.30
2022-10-17T21:21:09.304Z,17.30
2022-10-17T21:23:35.973Z,17.30
2022-10-17T21:26:04.077Z,17.30
2022-10-17T21:28:31.974Z,17.10
2022-10-17T21:31:16.275Z,17.10
2022-10-17T21:33:44.862Z,17.10
2022-10-17T21:36:13.483Z,17.00
2022-10-17T21:38:40.729Z,16.90
2022-10-17T21:41:08.843Z,16.80
2022-10-17T21:43:36.594Z,16.70
2022-10-17T21:46:09.385Z,16.70
2022-10-17T21:48:36.193Z,16.80
2022-10-17T21:51:04.835Z,16.80
2022-10-17T21:53:31.690Z,16.80
2022-10-17T21:56:02.249Z,16.80
2022-10-17T21:58:29.557Z,16.80
2022-10-17T22:01:07.892Z,16.70
2022-10-17T22:03:42.703Z,16.60
2022-10-17T22:09:01.729Z,16.50
2022-10-17T22:11:33.899Z,16.50
2022-10-17T22:14:06.904Z,16.50
2022-10-17T22:16:34.007Z,16.50
2022-10-17T22:19:06.139Z,16.50
2022-10-17T22:21:34.679Z,16.60
2022-10-17T22:24:04.389Z,16.60
2022-10-17T22:26:34.249Z,16.60
2022-10-17T22:29:01.486Z,16.70
2022-10-17T22:31:28.229Z,16.70
2022-10-17T22:33:55.369Z,16.80
2022-10-17T22:36:22.007Z,16.90
2022-10-17T22:38:48.692Z,16.90
2022-10-17T22:41:15.271Z,17.00
2022-10-17T22:43:41.914Z,17.00
2022-10-17T22:46:09.843Z,17.00
2022-10-17T22:48:36.972Z,17.10
2022-10-17T22:51:03.668Z,17.10
2022-10-17T22:53:30.636Z,17.10
2022-10-17T22:55:59.839Z,17.10
2022-10-17T22:58:27.926Z,17.10
2022-10-17T23:00:55.106Z,17.10
2022-10-17T23:03:23.619Z,17.10
2022-10-17T23:05:50.482Z,17.10
2022-10-17T23:08:18.163Z,17.10
2022-10-17T23:10:45.970Z,17.10
2022-10-17T23:13:13.366Z,17.10
2022-10-17T23:15:40.395Z,17.20
2022-10-17T23:18:07.698Z,17.20
2022-10-17T23:20:34.299Z,17.20
2022-10-17T23:23:01.121Z,17.30
2022-10-17T23:25:28.166Z,17.20
2022-10-17T23:27:54.962Z,17.20
2022-10-17T23:30:21.816Z,17.20
2022-10-17T23:32:48.417Z,17.20
2022-10-17T23:35:15.182Z,17.20
2022-10-17T23:37:41.838Z,17.20
2022-10-17T23:40:09.211Z,17.40
2022-10-17T23:42:35.978Z,17.30
2022-10-17T23:45:03.009Z,17.30
2022-10-17T23:47:31.278Z,17.20
2022-10-17T23:49:58.282Z,17.20
2022-10-17T23:52:25.443Z,17.20
2022-10-17T23:54:52.182Z,17.30
2022-10-17T23:57:18.831Z,17.30
2022-10-17T23:59:45.520Z,17.20
